Terminal Aerodrome Forecast
Issued by NWS

Home | Current Version | Previous Version | Text Only | Print | Product List | Glossary On
Versions: 1 2 3 4 5 6 7 8 9 10 11 12 13 14 15
000
FTUS46 KSGX 260534
TAFSNA
TAF
KSNA 260534Z 2606/2706 VRB05KT P6SM SCT025
     FM261800 20007KT P6SM SCT025 SCT030
     FM262200 23009KT P6SM FEW020
     FM270200 VRB04KT P6SM SKC=

USA.gov is the U.S. government's official web portal to all federal, state and local government web resources and services.